Time,TemperatureF,DewpointF,PressureIn,WindDirection,WindDirectionDegrees,WindSpeedMPH,WindSpeedGustMPH,Humidity,HourlyPrecipIn,Conditions,Clouds,dailyrainin,SoftwareType,DateUTC
2013-05-29 00:02:00,69.0,67.0,-100.00,ENE,60,3.0,6.0,95,0.00,,,-99.99,,2013-05-29 05:02:00,
2013-05-29 00:12:00,68.0,67.0,-100.00,ENE,60,4.0,6.0,95,0.00,,,-99.99,,2013-05-29 05:12:00,
2013-05-29 00:22:00,68.0,66.0,-100.00,ENE,70,4.0,7.0,95,0.00,,,-99.99,,2013-05-29 05:22:00,
2013-05-29 00:32:00,67.0,66.0,-100.00,ENE,70,4.0,9.0,95,0.00,,,-99.99,,2013-05-29 05:32:00,
2013-05-29 00:42:00,67.0,65.0,-100.00,East,80,2.0,7.0,95,0.00,,,-99.99,,2013-05-29 05:42:00,
2013-05-29 00:52:00,66.0,64.0,-100.00,ENE,75,2.0,12.0,92,0.00,,,-99.99,,2013-05-29 05:52:00,
2013-05-29 01:01:00,66.0,64.0,-100.00,ENE,75,2.0,12.0,92,0.00,,,-99.99,,2013-05-29 06:01:00,
2013-05-29 01:11:00,67.0,64.0,-100.00,East,95,4.0,10.0,90,0.62,,,-99.99,,2013-05-29 06:11:00,
2013-05-29 01:21:00,67.0,64.0,-100.00,ENE,70,4.0,10.0,89,0.17,,,-99.99,,2013-05-29 06:21:00,
2013-05-29 01:31:00,67.0,64.0,-100.00,East,100,4.0,12.0,89,0.00,,,-99.99,,2013-05-29 06:31:00,
2013-05-29 01:42:00,67.0,64.0,-100.00,East,95,4.0,8.0,89,0.00,,,-99.99,,2013-05-29 06:42:00,
2013-05-29 01:51:00,67.0,64.0,-100.00,East,100,4.0,7.0,89,0.00,,,-99.99,,2013-05-29 06:51:00,
2013-05-29 02:01:00,67.0,64.0,-100.00,East,100,4.0,7.0,89,0.00,,,-99.99,,2013-05-29 07:01:00,
2013-05-29 02:11:00,67.0,64.0,-100.00,East,100,6.0,11.0,90,0.00,,,-99.99,,2013-05-29 07:11:00,
2013-05-29 02:21:00,67.0,64.0,-100.00,East,85,4.0,9.0,90,0.78,,,-99.99,,2013-05-29 07:21:00,
2013-05-29 02:34:00,66.0,63.0,-100.00,ESE,110,4.0,10.0,89,0.00,,,-99.99,,2013-05-29 07:34:00,
2013-05-29 02:42:00,66.0,62.0,-100.00,East,100,5.0,10.0,88,0.11,,,-99.99,,2013-05-29 07:42:00,
2013-05-29 02:52:00,65.0,62.0,-100.00,ESE,110,9.0,13.0,88,0.00,,,-99.99,,2013-05-29 07:52:00,
2013-05-29 03:02:00,65.0,62.0,-100.00,ESE,110,9.0,13.0,88,0.00,,,-99.99,,2013-05-29 08:02:00,
2013-05-29 03:11:00,65.0,62.0,-100.00,East,95,7.0,15.0,88,0.00,,,-99.99,,2013-05-29 08:11:00,
2013-05-29 03:21:00,65.0,61.0,-100.00,ESE,110,8.0,12.0,87,0.00,,,-99.99,,2013-05-29 08:21:00,
2013-05-29 03:32:00,65.0,61.0,-100.00,ESE,105,6.0,16.0,86,0.00,,,-99.99,,2013-05-29 08:32:00,
2013-05-29 03:41:00,65.0,61.0,-100.00,ESE,105,6.0,16.0,86,0.00,,,-99.99,,2013-05-29 08:41:00,
2013-05-29 03:51:00,65.0,60.0,-100.00,East,95,5.0,9.0,85,0.00,,,-99.99,,2013-05-29 08:51:00,
2013-05-29 04:01:00,65.0,60.0,-100.00,ESE,110,6.0,9.0,85,0.00,,,-99.99,,2013-05-29 09:01:00,
2013-05-29 04:11:00,65.0,60.0,-100.00,ESE,110,6.0,9.0,85,0.00,,,-99.99,,2013-05-29 09:11:00,
2013-05-29 04:21:00,64.0,60.0,-100.00,ESE,110,2.0,9.0,85,0.00,,,-99.99,,2013-05-29 09:21:00,
2013-05-29 04:33:00,64.0,60.0,-100.00,SSE,155,2.0,6.0,85,0.00,,,-99.99,,2013-05-29 09:33:00,
2013-05-29 04:42:00,64.0,60.0,-100.00,SSE,150,2.0,6.0,86,0.00,,,-99.99,,2013-05-29 09:42:00,
2013-05-29 04:52:00,64.0,60.0,-100.00,SE,145,1.0,7.0,86,0.00,,,-99.99,,2013-05-29 09:52:00,
2013-05-29 05:03:00,64.0,60.0,-100.00,SE,145,1.0,7.0,86,0.00,,,-99.99,,2013-05-29 10:03:00,
2013-05-29 05:12:00,64.0,60.0,-100.00,SSE,150,1.0,4.0,85,0.00,,,-99.99,,2013-05-29 10:12:00,
2013-05-29 05:22:00,64.0,60.0,-100.00,SSE,150,2.0,6.0,85,0.00,,,-99.99,,2013-05-29 10:22:00,
2013-05-29 05:32:00,64.0,60.0,-100.00,SE,130,2.0,6.0,85,0.00,,,-99.99,,2013-05-29 10:32:00,
2013-05-29 05:42:00,64.0,60.0,-100.00,South,170,2.0,7.0,85,0.00,,,-99.99,,2013-05-29 10:42:00,
2013-05-29 05:52:00,64.0,60.0,-100.00,East,100,2.0,9.0,85,0.00,,,-99.99,,2013-05-29 10:52:00,
2013-05-29 06:02:00,64.0,60.0,-100.00,East,100,2.0,9.0,85,0.00,,,-99.99,,2013-05-29 11:02:00,
2013-05-29 06:12:00,64.0,60.0,-100.00,East,80,2.0,6.0,86,0.00,,,-99.99,,2013-05-29 11:12:00,
2013-05-29 06:22:00,64.0,60.0,-100.00,East,80,3.0,7.0,86,0.00,,,-99.99,,2013-05-29 11:22:00,
2013-05-29 06:32:00,64.0,60.0,-100.00,East,95,3.0,9.0,87,0.00,,,-99.99,,2013-05-29 11:32:00,
2013-05-29 06:42:00,64.0,60.0,-100.00,East,95,3.0,9.0,87,0.00,,,-99.99,,2013-05-29 11:42:00,
2013-05-29 06:51:00,64.0,60.0,-100.00,East,100,1.0,8.0,87,0.00,,,-99.99,,2013-05-29 11:51:00,
2013-05-29 07:01:00,65.0,61.0,-100.00,East,95,2.0,7.0,87,0.00,,,-99.99,,2013-05-29 12:01:00,
2013-05-29 07:11:00,65.0,61.0,-100.00,East,95,2.0,7.0,87,0.00,,,-99.99,,2013-05-29 12:11:00,
2013-05-29 07:21:00,65.0,61.0,-100.00,East,95,2.0,7.0,87,0.00,,,-99.99,,2013-05-29 12:21:00,
2013-05-29 07:32:00,66.0,61.0,-100.00,East,80,3.0,10.0,84,0.00,,,-99.99,,2013-05-29 12:32:00,
2013-05-29 07:42:00,66.0,62.0,-100.00,ESE,110,3.0,11.0,86,0.00,,,-99.99,,2013-05-29 12:42:00,
2013-05-29 07:52:00,67.0,63.0,-100.00,East,90,6.0,12.0,84,0.00,,,-99.99,,2013-05-29 12:52:00,
2013-05-29 08:02:00,67.0,63.0,-100.00,East,90,6.0,12.0,84,0.00,,,-99.99,,2013-05-29 13:02:00,
2013-05-29 08:11:00,67.0,62.0,-100.00,East,90,7.0,13.0,84,0.00,,,-99.99,,2013-05-29 13:11:00,
2013-05-29 08:21:00,68.0,63.0,-100.00,East,100,7.0,18.0,84,1.01,,,-99.99,,2013-05-29 13:21:00,
2013-05-29 08:32:00,68.0,63.0,-100.00,East,100,8.0,17.0,84,0.00,,,-99.99,,2013-05-29 13:32:00,
2013-05-29 08:42:00,68.0,63.0,-100.00,East,100,8.0,17.0,84,0.00,,,-99.99,,2013-05-29 13:42:00,
2013-05-29 08:52:00,69.0,63.0,-100.00,East,95,7.0,17.0,83,0.00,,,-99.99,,2013-05-29 13:52:00,
2013-05-29 09:02:00,70.0,64.0,-100.00,East,100,6.0,17.0,80,0.00,,,-99.99,,2013-05-29 14:02:00,
2013-05-29 09:11:00,72.0,64.0,-100.00,ESE,105,9.0,17.0,77,0.00,,,-99.99,,2013-05-29 14:11:00,
2013-05-29 09:21:00,72.0,64.0,-100.00,ESE,105,9.0,17.0,77,0.00,,,-99.99,,2013-05-29 14:21:00,
2013-05-29 09:32:00,70.0,64.0,-100.00,ESE,110,6.0,11.0,80,0.45,,,-99.99,,2013-05-29 14:32:00,
2013-05-29 09:41:00,70.0,64.0,-100.00,ESE,110,6.0,11.0,80,0.45,,,-99.99,,2013-05-29 14:41:00,
2013-05-29 09:52:00,69.0,65.0,-100.00,South,170,5.0,17.0,88,5.65,,,-99.99,,2013-05-29 14:52:00,
2013-05-29 10:01:00,69.0,65.0,-100.00,South,170,5.0,17.0,88,5.65,,,-99.99,,2013-05-29 15:01:00,
2013-05-29 10:11:00,68.0,65.0,-100.00,SSE,155,4.0,10.0,92,0.00,,,-99.99,,2013-05-29 15:11:00,
2013-05-29 10:21:00,68.0,66.0,-100.00,South,175,6.0,10.0,93,0.00,,,-99.99,,2013-05-29 15:21:00,
2013-05-29 10:33:00,69.0,67.0,-100.00,South,170,4.0,11.0,93,0.00,,,-99.99,,2013-05-29 15:33:00,
2013-05-29 10:42:00,69.0,67.0,-100.00,South,170,4.0,11.0,93,0.00,,,-99.99,,2013-05-29 15:42:00,
2013-05-29 10:53:00,71.0,68.0,-100.00,South,185,6.0,13.0,90,0.00,,,-99.99,,2013-05-29 15:53:00,
2013-05-29 11:03:00,71.0,68.0,-100.00,South,185,6.0,13.0,90,0.00,,,-99.99,,2013-05-29 16:03:00,
2013-05-29 11:12:00,74.0,69.0,-100.00,South,185,4.0,14.0,84,0.00,,,-99.99,,2013-05-29 16:12:00,
2013-05-29 11:22:00,76.0,70.0,-100.00,South,185,7.0,14.0,81,0.00,,,-99.99,,2013-05-29 16:22:00,
2013-05-29 11:32:00,76.0,70.0,-100.00,South,185,7.0,14.0,81,0.00,,,-99.99,,2013-05-29 16:32:00,
2013-05-29 11:42:00,76.0,68.0,-100.00,South,180,11.0,24.0,77,0.00,,,-99.99,,2013-05-29 16:42:00,
2013-05-29 11:52:00,78.0,69.0,-100.00,South,190,10.0,19.0,75,0.00,,,-99.99,,2013-05-29 16:52:00,
2013-05-29 12:02:00,79.0,70.0,-100.00,South,190,12.0,20.0,73,0.00,,,-99.99,,2013-05-29 17:02:00,
2013-05-29 12:12:00,79.0,70.0,-100.00,South,190,12.0,20.0,73,0.00,,,-99.99,,2013-05-29 17:12:00,
2013-05-29 12:22:00,78.0,69.0,-100.00,South,190,12.0,19.0,73,0.00,,,-99.99,,2013-05-29 17:22:00,
2013-05-29 12:32:00,79.0,69.0,-100.00,SSW,210,8.0,14.0,72,0.00,,,-99.99,,2013-05-29 17:32:00,
2013-05-29 12:42:00,79.0,69.0,-100.00,South,185,6.0,14.0,73,0.00,,,-99.99,,2013-05-29 17:42:00,
2013-05-29 12:52:00,79.0,69.0,-100.00,South,185,9.0,15.0,72,0.00,,,-99.99,,2013-05-29 17:52:00,
2013-05-29 13:01:00,79.0,69.0,-100.00,South,185,9.0,15.0,72,0.00,,,-99.99,,2013-05-29 18:01:00,
2013-05-29 13:13:00,80.0,70.0,-100.00,South,180,6.0,14.0,72,0.00,,,-99.99,,2013-05-29 18:13:00,
2013-05-29 13:22:00,81.0,70.0,-100.00,SSW,195,9.0,17.0,69,0.00,,,-99.99,,2013-05-29 18:22:00,
2013-05-29 13:32:00,80.0,69.0,-100.00,South,185,9.0,17.0,68,0.00,,,-99.99,,2013-05-29 18:32:00,
2013-05-29 13:42:00,80.0,68.0,-100.00,SSW,195,9.0,17.0,67,0.00,,,-99.99,,2013-05-29 18:42:00,
2013-05-29 13:51:00,81.0,69.0,-100.00,SSW,195,9.0,17.0,66,0.00,,,-99.99,,2013-05-29 18:51:00,
2013-05-29 14:02:00,81.0,69.0,-100.00,SSW,195,6.0,12.0,67,0.00,,,-99.99,,2013-05-29 19:02:00,
2013-05-29 14:11:00,79.0,68.0,-100.00,SSW,210,4.0,12.0,68,0.00,,,-99.99,,2013-05-29 19:11:00,
2013-05-29 14:21:00,79.0,68.0,-100.00,SSW,210,4.0,12.0,68,0.00,,,-99.99,,2013-05-29 19:21:00,
2013-05-29 14:32:00,69.0,63.0,-100.00,SSW,200,14.0,30.0,80,32.25,,,-99.99,,2013-05-29 19:32:00,
2013-05-29 14:44:00,61.0,61.0,-100.00,West,280,17.0,36.0,99,32.25,,,-99.99,,2013-05-29 19:44:00,
2013-05-29 14:52:00,62.0,62.0,-100.00,West,275,4.0,14.0,99,32.25,,,-99.99,,2013-05-29 19:52:00,
2013-05-29 15:02:00,62.0,62.0,-100.00,West,275,4.0,14.0,99,32.25,,,-99.99,,2013-05-29 20:02:00,
2013-05-29 15:11:00,62.0,62.0,-100.00,South,185,4.0,7.0,99,26.31,,,-99.99,,2013-05-29 20:11:00,
2013-05-29 15:22:00,63.0,63.0,-100.00,WSW,240,4.0,9.0,99,22.61,,,-99.99,,2013-05-29 20:22:00,
2013-05-29 15:33:00,63.0,63.0,-100.00,SSE,150,3.0,9.0,99,3.44,,,-99.99,,2013-05-29 20:33:00,
2013-05-29 15:42:00,63.0,63.0,-100.00,SSE,150,3.0,9.0,99,3.44,,,-99.99,,2013-05-29 20:42:00,
2013-05-29 15:52:00,64.0,64.0,-100.00,SSE,150,4.0,6.0,99,0.00,,,-99.99,,2013-05-29 20:52:00,
2013-05-29 16:02:00,65.0,65.0,-100.00,East,90,4.0,6.0,99,0.00,,,-99.99,,2013-05-29 21:02:00,
2013-05-29 16:12:00,66.0,66.0,-100.00,East,95,6.0,11.0,99,0.00,,,-99.99,,2013-05-29 21:12:00,
2013-05-29 16:22:00,66.0,66.0,-100.00,East,95,6.0,11.0,99,0.00,,,-99.99,,2013-05-29 21:22:00,
2013-05-29 16:33:00,67.0,66.0,-100.00,ENE,75,2.0,5.0,99,32.25,,,-99.99,,2013-05-29 21:33:00,
2013-05-29 16:43:00,67.0,66.0,-100.00,ENE,75,2.0,5.0,99,32.25,,,-99.99,,2013-05-29 21:43:00,
2013-05-29 16:53:00,67.0,67.0,-100.00,WNW,285,4.0,5.0,99,0.00,,,-99.99,,2013-05-29 21:53:00,
2013-05-29 17:03:00,67.0,67.0,-100.00,WNW,285,6.0,8.0,99,1.02,,,-99.99,,2013-05-29 22:03:00,
2013-05-29 17:12:00,67.0,67.0,-100.00,WNW,285,6.0,8.0,99,1.02,,,-99.99,,2013-05-29 22:12:00,
2013-05-29 17:23:00,67.0,67.0,-100.00,NW,320,5.0,11.0,99,0.00,,,-99.99,,2013-05-29 22:23:00,
2013-05-29 17:33:00,68.0,68.0,-100.00,North,355,4.0,6.0,99,0.00,,,-99.99,,2013-05-29 22:33:00,
2013-05-29 17:42:00,68.0,68.0,-100.00,North,355,4.0,6.0,99,0.00,,,-99.99,,2013-05-29 22:42:00,
2013-05-29 17:53:00,68.0,68.0,-100.00,NNW,340,6.0,8.0,99,0.00,,,-99.99,,2013-05-29 22:53:00,
2013-05-29 18:02:00,67.0,67.0,-100.00,NE,40,7.0,9.0,99,0.00,,,-99.99,,2013-05-29 23:02:00,
2013-05-29 18:12:00,68.0,68.0,-100.00,NE,45,6.0,9.0,99,0.00,,,-99.99,,2013-05-29 23:12:00,
2013-05-29 18:22:00,68.0,68.0,-100.00,NE,45,6.0,9.0,99,0.00,,,-99.99,,2013-05-29 23:22:00,
2013-05-29 18:33:00,67.0,67.0,-100.00,ENE,60,7.0,9.0,99,0.00,,,-99.99,,2013-05-29 23:33:00,
2013-05-29 18:42:00,67.0,67.0,-100.00,ENE,60,7.0,9.0,99,0.00,,,-99.99,,2013-05-29 23:42:00,
2013-05-29 18:52:00,67.0,67.0,-100.00,ENE,70,7.0,11.0,99,0.00,,,-99.99,,2013-05-29 23:52:00,
2013-05-29 19:01:00,67.0,67.0,-100.00,ENE,70,7.0,11.0,99,0.00,,,-99.99,,2013-05-30 00:01:00,
2013-05-29 19:11:00,67.0,67.0,-100.00,ENE,75,9.0,12.0,99,0.00,,,-99.99,,2013-05-30 00:11:00,
2013-05-29 19:21:00,68.0,68.0,-100.00,East,100,7.0,11.0,99,0.00,,,-99.99,,2013-05-30 00:21:00,
2013-05-29 19:31:00,68.0,68.0,-100.00,East,90,6.0,9.0,99,0.00,,,-99.99,,2013-05-30 00:31:00,
2013-05-29 19:42:00,68.0,68.0,-100.00,East,80,6.0,9.0,99,0.00,,,-99.99,,2013-05-30 00:42:00,
2013-05-29 19:52:00,69.0,69.0,-100.00,East,100,6.0,8.0,99,0.00,,,-99.99,,2013-05-30 00:52:00,
2013-05-29 20:01:00,69.0,69.0,-100.00,East,100,6.0,8.0,99,0.00,,,-99.99,,2013-05-30 01:01:00,
2013-05-29 20:11:00,69.0,69.0,-100.00,ESE,105,7.0,8.0,99,0.00,,,-99.99,,2013-05-30 01:11:00,
2013-05-29 20:21:00,69.0,69.0,-100.00,SE,140,3.0,7.0,99,0.47,,,-99.99,,2013-05-30 01:21:00,
2013-05-29 20:32:00,69.0,69.0,-100.00,SE,140,4.0,9.0,99,0.00,,,-99.99,,2013-05-30 01:32:00,
2013-05-29 20:41:00,69.0,69.0,-100.00,SE,140,4.0,9.0,99,0.00,,,-99.99,,2013-05-30 01:41:00,
2013-05-29 20:52:00,69.0,69.0,-100.00,ESE,110,2.0,6.0,99,0.00,,,-99.99,,2013-05-30 01:52:00,
2013-05-29 21:01:00,70.0,70.0,-100.00,South,185,3.0,9.0,99,0.00,,,-99.99,,2013-05-30 02:01:00,
2013-05-29 21:11:00,70.0,70.0,-100.00,South,185,3.0,9.0,99,0.00,,,-99.99,,2013-05-30 02:11:00,
2013-05-29 21:21:00,71.0,70.0,-100.00,SSE,150,2.0,9.0,97,0.00,,,-99.99,,2013-05-30 02:21:00,
2013-05-29 21:32:00,71.0,70.0,-100.00,SE,145,4.0,8.0,96,0.00,,,-99.99,,2013-05-30 02:32:00,
2013-05-29 21:42:00,71.0,70.0,-100.00,SE,145,4.0,8.0,96,0.00,,,-99.99,,2013-05-30 02:42:00,
2013-05-29 21:52:00,71.0,70.0,-100.00,SE,145,4.0,8.0,96,0.00,,,-99.99,,2013-05-30 02:52:00,
2013-05-29 22:01:00,73.0,69.0,-100.00,South,175,6.0,15.0,87,0.00,,,-99.99,,2013-05-30 03:01:00,
2013-05-29 22:11:00,73.0,68.0,-100.00,South,180,6.0,14.0,84,0.00,,,-99.99,,2013-05-30 03:11:00,
2013-05-29 22:21:00,72.0,67.0,-100.00,South,190,6.0,14.0,85,0.00,,,-99.99,,2013-05-30 03:21:00,
2013-05-29 22:33:00,71.0,68.0,-100.00,SE,145,2.0,11.0,88,0.00,,,-99.99,,2013-05-30 03:33:00,
2013-05-29 22:43:00,71.0,68.0,-100.00,SSE,150,3.0,7.0,89,0.00,,,-99.99,,2013-05-30 03:43:00,
2013-05-29 22:53:00,71.0,68.0,-100.00,SSE,150,4.0,12.0,89,0.00,,,-99.99,,2013-05-30 03:53:00,
2013-05-29 23:02:00,71.0,68.0,-100.00,SSE,150,4.0,12.0,89,0.00,,,-99.99,,2013-05-30 04:02:00,
2013-05-29 23:12:00,72.0,68.0,-100.00,SSE,155,4.0,15.0,85,0.00,,,-99.99,,2013-05-30 04:12:00,
2013-05-29 23:23:00,72.0,67.0,-100.00,South,175,4.0,12.0,84,0.00,,,-99.99,,2013-05-30 04:23:00,
2013-05-29 23:33:00,72.0,67.0,-100.00,SSE,160,5.0,11.0,84,0.00,,,-99.99,,2013-05-30 04:33:00,
2013-05-29 23:42:00,72.0,67.0,-100.00,SSE,160,5.0,11.0,84,0.00,,,-99.99,,2013-05-30 04:42:00,
2013-05-29 23:53:00,72.0,67.0,-100.00,South,185,4.0,14.0,85,0.00,,,-99.99,,2013-05-30 04:53:00,